sensor_id;sensor_type;location;lat;lon;timestamp;P1;durP1;ratioP1;P2;durP2;ratioP2
5333;SDS011;2689;50.954;7.116;2023-05-02T00:00:05;12.10;;;9.67;;
5333;SDS011;2689;50.954;7.116;2023-05-02T00:02:33;8.80;;;7.97;;
5333;SDS011;2689;50.954;7.116;2023-05-02T00:05:01;13.43;;;9.03;;
5333;SDS011;2689;50.954;7.116;2023-05-02T00:07:29;8.97;;;8.07;;
5333;SDS011;2689;50.954;7.116;2023-05-02T00:09:55;8.60;;;7.80;;
5333;SDS011;2689;50.954;7.116;2023-05-02T00:12:22;9.23;;;8.27;;
5333;SDS011;2689;50.954;7.116;2023-05-02T00:14:49;11.20;;;9.33;;
5333;SDS011;2689;50.954;7.116;2023-05-02T00:17:16;10.70;;;9.13;;
5333;SDS011;2689;50.954;7.116;2023-05-02T00:19:43;9.30;;;8.30;;
5333;SDS011;2689;50.954;7.116;2023-05-02T00:22:11;9.87;;;8.73;;
5333;SDS011;2689;50.954;7.116;2023-05-02T00:24:38;10.33;;;9.33;;
5333;SDS011;2689;50.954;7.116;2023-05-02T00:27:05;11.03;;;9.13;;
5333;SDS011;2689;50.954;7.116;2023-05-02T00:29:32;10.97;;;9.80;;
5333;SDS011;2689;50.954;7.116;2023-05-02T00:31:58;9.80;;;8.80;;
5333;SDS011;2689;50.954;7.116;2023-05-02T00:34:27;9.70;;;8.50;;
5333;SDS011;2689;50.954;7.116;2023-05-02T00:36:54;12.30;;;9.23;;
5333;SDS011;2689;50.954;7.116;2023-05-02T00:39:22;10.40;;;8.90;;
5333;SDS011;2689;50.954;7.116;2023-05-02T00:41:54;10.10;;;9.13;;
5333;SDS011;2689;50.954;7.116;2023-05-02T00:44:21;10.40;;;9.40;;
5333;SDS011;2689;50.954;7.116;2023-05-02T00:46:48;11.47;;;8.73;;
5333;SDS011;2689;50.954;7.116;2023-05-02T00:49:16;11.23;;;10.00;;
5333;SDS011;2689;50.954;7.116;2023-05-02T00:51:43;10.43;;;9.23;;
5333;SDS011;2689;50.954;7.116;2023-05-02T00:54:10;10.60;;;9.50;;
5333;SDS011;2689;50.954;7.116;2023-05-02T00:56:39;11.67;;;9.73;;
5333;SDS011;2689;50.954;7.116;2023-05-02T00:59:07;10.33;;;9.30;;
5333;SDS011;2689;50.954;7.116;2023-05-02T01:01:35;11.33;;;9.90;;
5333;SDS011;2689;50.954;7.116;2023-05-02T01:04:17;9.70;;;8.80;;
5333;SDS011;2689;50.954;7.116;2023-05-02T01:07:01;9.03;;;8.07;;
5333;SDS011;2689;50.954;7.116;2023-05-02T01:09:38;9.17;;;8.27;;
5333;SDS011;2689;50.954;7.116;2023-05-02T01:12:17;9.30;;;8.40;;
5333;SDS011;2689;50.954;7.116;2023-05-02T01:14:52;10.73;;;9.00;;
5333;SDS011;2689;50.954;7.116;2023-05-02T01:17:21;8.63;;;7.77;;
5333;SDS011;2689;50.954;7.116;2023-05-02T01:19:52;11.00;;;8.27;;
5333;SDS011;2689;50.954;7.116;2023-05-02T01:22:21;9.00;;;8.10;;
5333;SDS011;2689;50.954;7.116;2023-05-02T01:24:50;9.80;;;8.20;;
5333;SDS011;2689;50.954;7.116;2023-05-02T01:27:30;9.93;;;8.47;;
5333;SDS011;2689;50.954;7.116;2023-05-02T01:30:07;7.87;;;7.17;;
5333;SDS011;2689;50.954;7.116;2023-05-02T01:32:35;9.10;;;8.23;;
5333;SDS011;2689;50.954;7.116;2023-05-02T01:35:03;10.73;;;7.87;;
5333;SDS011;2689;50.954;7.116;2023-05-02T01:37:31;9.20;;;8.27;;
5333;SDS011;2689;50.954;7.116;2023-05-02T01:39:59;11.00;;;9.40;;
5333;SDS011;2689;50.954;7.116;2023-05-02T01:42:28;8.70;;;7.90;;
5333;SDS011;2689;50.954;7.116;2023-05-02T01:44:57;9.50;;;8.60;;
5333;SDS011;2689;50.954;7.116;2023-05-02T01:47:27;11.80;;;9.23;;
5333;SDS011;2689;50.954;7.116;2023-05-02T01:49:57;11.83;;;10.60;;
5333;SDS011;2689;50.954;7.116;2023-05-02T01:52:25;30.07;;;23.67;;
5333;SDS011;2689;50.954;7.116;2023-05-02T01:54:54;29.57;;;22.00;;
5333;SDS011;2689;50.954;7.116;2023-05-02T01:57:24;30.30;;;22.87;;
5333;SDS011;2689;50.954;7.116;2023-05-02T01:59:51;30.97;;;23.10;;
5333;SDS011;2689;50.954;7.116;2023-05-02T02:02:21;27.57;;;21.73;;
5333;SDS011;2689;50.954;7.116;2023-05-02T02:04:53;37.30;;;28.73;;
5333;SDS011;2689;50.954;7.116;2023-05-02T02:07:21;40.43;;;30.43;;
5333;SDS011;2689;50.954;7.116;2023-05-02T02:09:48;45.37;;;34.53;;
5333;SDS011;2689;50.954;7.116;2023-05-02T02:12:16;46.97;;;34.70;;
5333;SDS011;2689;50.954;7.116;2023-05-02T02:14:49;44.07;;;33.87;;
5333;SDS011;2689;50.954;7.116;2023-05-02T02:17:23;50.13;;;35.13;;
5333;SDS011;2689;50.954;7.116;2023-05-02T02:19:53;51.80;;;35.90;;
5333;SDS011;2689;50.954;7.116;2023-05-02T02:22:22;60.07;;;40.83;;
5333;SDS011;2689;50.954;7.116;2023-05-02T02:24:51;56.67;;;38.10;;
5333;SDS011;2689;50.954;7.116;2023-05-02T02:27:19;58.43;;;39.03;;
5333;SDS011;2689;50.954;7.116;2023-05-02T02:29:46;54.77;;;38.67;;
5333;SDS011;2689;50.954;7.116;2023-05-02T02:32:13;54.87;;;39.53;;
5333;SDS011;2689;50.954;7.116;2023-05-02T02:34:40;57.13;;;41.00;;
5333;SDS011;2689;50.954;7.116;2023-05-02T02:37:10;61.33;;;40.97;;
5333;SDS011;2689;50.954;7.116;2023-05-02T02:39:43;59.87;;;41.60;;
5333;SDS011;2689;50.954;7.116;2023-05-02T02:42:17;52.73;;;36.40;;
5333;SDS011;2689;50.954;7.116;2023-05-02T02:44:51;61.63;;;40.40;;
5333;SDS011;2689;50.954;7.116;2023-05-02T02:47:22;54.70;;;34.87;;
5333;SDS011;2689;50.954;7.116;2023-05-02T02:50:01;55.50;;;37.27;;
5333;SDS011;2689;50.954;7.116;2023-05-02T02:52:46;44.20;;;27.27;;
5333;SDS011;2689;50.954;7.116;2023-05-02T02:55:19;57.93;;;36.47;;
5333;SDS011;2689;50.954;7.116;2023-05-02T02:57:58;62.80;;;38.40;;
5333;SDS011;2689;50.954;7.116;2023-05-02T03:00:29;56.97;;;35.13;;
5333;SDS011;2689;50.954;7.116;2023-05-02T03:02:57;53.43;;;34.30;;
5333;SDS011;2689;50.954;7.116;2023-05-02T03:05:25;54.53;;;36.10;;
5333;SDS011;2689;50.954;7.116;2023-05-02T03:07:54;54.47;;;32.63;;
5333;SDS011;2689;50.954;7.116;2023-05-02T03:10:21;50.00;;;33.10;;
5333;SDS011;2689;50.954;7.116;2023-05-02T03:12:48;54.10;;;34.70;;
5333;SDS011;2689;50.954;7.116;2023-05-02T03:15:20;59.60;;;35.40;;
5333;SDS011;2689;50.954;7.116;2023-05-02T03:17:54;51.00;;;33.30;;
5333;SDS011;2689;50.954;7.116;2023-05-02T03:20:20;54.20;;;33.10;;
5333;SDS011;2689;50.954;7.116;2023-05-02T03:22:47;54.60;;;34.40;;
5333;SDS011;2689;50.954;7.116;2023-05-02T03:25:15;53.57;;;33.30;;
5333;SDS011;2689;50.954;7.116;2023-05-02T03:27:42;51.87;;;34.47;;
5333;SDS011;2689;50.954;7.116;2023-05-02T03:30:09;47.83;;;32.73;;
5333;SDS011;2689;50.954;7.116;2023-05-02T03:32:36;52.80;;;32.63;;
5333;SDS011;2689;50.954;7.116;2023-05-02T03:35:03;51.13;;;33.50;;
5333;SDS011;2689;50.954;7.116;2023-05-02T03:37:30;54.47;;;34.37;;
5333;SDS011;2689;50.954;7.116;2023-05-02T03:39:58;55.20;;;35.63;;
5333;SDS011;2689;50.954;7.116;2023-05-02T03:42:26;50.20;;;33.37;;
5333;SDS011;2689;50.954;7.116;2023-05-02T03:44:53;49.73;;;32.77;;
5333;SDS011;2689;50.954;7.116;2023-05-02T03:47:20;52.13;;;33.93;;
5333;SDS011;2689;50.954;7.116;2023-05-02T03:49:47;56.40;;;32.80;;
5333;SDS011;2689;50.954;7.116;2023-05-02T03:52:13;47.13;;;32.40;;
5333;SDS011;2689;50.954;7.116;2023-05-02T03:54:40;44.47;;;31.13;;
5333;SDS011;2689;50.954;7.116;2023-05-02T03:57:07;50.10;;;33.60;;
5333;SDS011;2689;50.954;7.116;2023-05-02T03:59:35;44.27;;;31.73;;
5333;SDS011;2689;50.954;7.116;2023-05-02T04:02:05;53.73;;;34.70;;
5333;SDS011;2689;50.954;7.116;2023-05-02T04:04:32;53.57;;;34.40;;
5333;SDS011;2689;50.954;7.116;2023-05-02T04:07:00;49.80;;;32.17;;
5333;SDS011;2689;50.954;7.116;2023-05-02T04:09:27;49.60;;;34.03;;
5333;SDS011;2689;50.954;7.116;2023-05-02T04:11:54;47.93;;;32.40;;
5333;SDS011;2689;50.954;7.116;2023-05-02T04:14:20;51.47;;;33.07;;
5333;SDS011;2689;50.954;7.116;2023-05-02T04:16:48;51.23;;;32.70;;
5333;SDS011;2689;50.954;7.116;2023-05-02T04:19:15;48.30;;;31.57;;
5333;SDS011;2689;50.954;7.116;2023-05-02T04:21:43;53.60;;;35.50;;
5333;SDS011;2689;50.954;7.116;2023-05-02T04:24:12;48.60;;;32.23;;
5333;SDS011;2689;50.954;7.116;2023-05-02T04:26:38;49.17;;;31.47;;
5333;SDS011;2689;50.954;7.116;2023-05-02T04:29:05;49.37;;;34.80;;
5333;SDS011;2689;50.954;7.116;2023-05-02T04:31:32;50.60;;;32.37;;
5333;SDS011;2689;50.954;7.116;2023-05-02T04:34:01;53.23;;;33.93;;
5333;SDS011;2689;50.954;7.116;2023-05-02T04:36:28;55.50;;;35.87;;
5333;SDS011;2689;50.954;7.116;2023-05-02T04:38:55;52.60;;;33.27;;
5333;SDS011;2689;50.954;7.116;2023-05-02T04:41:22;47.83;;;32.13;;
5333;SDS011;2689;50.954;7.116;2023-05-02T04:43:48;50.47;;;32.17;;
5333;SDS011;2689;50.954;7.116;2023-05-02T04:46:15;50.33;;;32.13;;
5333;SDS011;2689;50.954;7.116;2023-05-02T04:48:42;55.53;;;33.17;;
5333;SDS011;2689;50.954;7.116;2023-05-02T04:51:11;50.53;;;34.03;;
5333;SDS011;2689;50.954;7.116;2023-05-02T04:53:38;54.40;;;34.30;;
5333;SDS011;2689;50.954;7.116;2023-05-02T04:56:05;53.30;;;33.87;;
5333;SDS011;2689;50.954;7.116;2023-05-02T04:58:32;52.03;;;33.00;;
5333;SDS011;2689;50.954;7.116;2023-05-02T05:01:00;53.43;;;32.90;;
5333;SDS011;2689;50.954;7.116;2023-05-02T05:03:27;47.80;;;31.70;;
5333;SDS011;2689;50.954;7.116;2023-05-02T05:05:54;53.27;;;32.53;;
5333;SDS011;2689;50.954;7.116;2023-05-02T05:08:23;52.43;;;32.30;;
5333;SDS011;2689;50.954;7.116;2023-05-02T05:10:49;50.63;;;33.33;;
5333;SDS011;2689;50.954;7.116;2023-05-02T05:13:17;46.13;;;31.90;;
5333;SDS011;2689;50.954;7.116;2023-05-02T05:15:44;47.07;;;32.67;;
5333;SDS011;2689;50.954;7.116;2023-05-02T05:18:12;51.40;;;32.87;;
5333;SDS011;2689;50.954;7.116;2023-05-02T05:20:39;48.17;;;31.43;;
5333;SDS011;2689;50.954;7.116;2023-05-02T05:23:05;47.20;;;29.37;;
5333;SDS011;2689;50.954;7.116;2023-05-02T05:25:33;45.03;;;29.90;;
5333;SDS011;2689;50.954;7.116;2023-05-02T05:28:00;51.43;;;32.27;;
5333;SDS011;2689;50.954;7.116;2023-05-02T05:30:27;51.30;;;30.07;;
5333;SDS011;2689;50.954;7.116;2023-05-02T05:32:55;50.20;;;31.30;;
5333;SDS011;2689;50.954;7.116;2023-05-02T05:35:22;54.03;;;30.10;;
5333;SDS011;2689;50.954;7.116;2023-05-02T05:37:49;48.50;;;30.93;;
5333;SDS011;2689;50.954;7.116;2023-05-02T05:40:16;46.20;;;29.13;;
5333;SDS011;2689;50.954;7.116;2023-05-02T05:42:44;48.67;;;30.67;;
5333;SDS011;2689;50.954;7.116;2023-05-02T05:45:11;47.97;;;30.07;;
5333;SDS011;2689;50.954;7.116;2023-05-02T05:47:38;45.77;;;28.23;;
5333;SDS011;2689;50.954;7.116;2023-05-02T05:50:06;47.27;;;28.87;;
5333;SDS011;2689;50.954;7.116;2023-05-02T05:52:33;44.50;;;26.77;;
5333;SDS011;2689;50.954;7.116;2023-05-02T05:55:01;48.90;;;28.57;;
5333;SDS011;2689;50.954;7.116;2023-05-02T05:57:28;41.27;;;27.50;;
5333;SDS011;2689;50.954;7.116;2023-05-02T05:59:56;38.43;;;26.13;;
5333;SDS011;2689;50.954;7.116;2023-05-02T06:02:23;46.00;;;30.30;;
5333;SDS011;2689;50.954;7.116;2023-05-02T06:04:50;42.50;;;26.73;;
5333;SDS011;2689;50.954;7.116;2023-05-02T06:07:17;44.60;;;30.30;;
5333;SDS011;2689;50.954;7.116;2023-05-02T06:09:43;41.20;;;27.40;;
5333;SDS011;2689;50.954;7.116;2023-05-02T06:12:10;48.93;;;27.17;;
5333;SDS011;2689;50.954;7.116;2023-05-02T06:14:37;39.73;;;24.50;;
5333;SDS011;2689;50.954;7.116;2023-05-02T06:17:05;46.33;;;27.03;;
5333;SDS011;2689;50.954;7.116;2023-05-02T06:19:32;44.37;;;26.77;;
5333;SDS011;2689;50.954;7.116;2023-05-02T06:21:59;44.87;;;24.47;;
5333;SDS011;2689;50.954;7.116;2023-05-02T06:24:26;41.07;;;25.53;;
5333;SDS011;2689;50.954;7.116;2023-05-02T06:26:53;40.97;;;25.30;;
5333;SDS011;2689;50.954;7.116;2023-05-02T06:29:19;37.87;;;23.00;;
5333;SDS011;2689;50.954;7.116;2023-05-02T06:31:46;39.10;;;24.50;;
5333;SDS011;2689;50.954;7.116;2023-05-02T06:34:16;41.00;;;25.27;;
5333;SDS011;2689;50.954;7.116;2023-05-02T06:36:43;44.87;;;26.07;;
5333;SDS011;2689;50.954;7.116;2023-05-02T06:39:10;37.70;;;24.40;;
5333;SDS011;2689;50.954;7.116;2023-05-02T06:41:37;38.17;;;24.37;;
5333;SDS011;2689;50.954;7.116;2023-05-02T06:44:04;43.63;;;25.93;;
5333;SDS011;2689;50.954;7.116;2023-05-02T06:46:30;40.97;;;26.27;;
5333;SDS011;2689;50.954;7.116;2023-05-02T06:48:57;38.30;;;25.00;;
5333;SDS011;2689;50.954;7.116;2023-05-02T06:51:25;41.40;;;27.67;;
5333;SDS011;2689;50.954;7.116;2023-05-02T06:53:52;36.87;;;24.30;;
5333;SDS011;2689;50.954;7.116;2023-05-02T06:56:19;35.37;;;22.87;;
5333;SDS011;2689;50.954;7.116;2023-05-02T06:58:46;37.40;;;26.90;;
5333;SDS011;2689;50.954;7.116;2023-05-02T07:01:12;42.53;;;26.27;;
5333;SDS011;2689;50.954;7.116;2023-05-02T07:03:39;36.30;;;22.50;;
5333;SDS011;2689;50.954;7.116;2023-05-02T07:06:06;40.77;;;25.37;;
5333;SDS011;2689;50.954;7.116;2023-05-02T07:08:34;37.63;;;23.87;;
5333;SDS011;2689;50.954;7.116;2023-05-02T07:11:01;34.73;;;22.10;;
5333;SDS011;2689;50.954;7.116;2023-05-02T07:13:28;32.57;;;22.40;;
5333;SDS011;2689;50.954;7.116;2023-05-02T07:15:55;39.03;;;24.53;;
5333;SDS011;2689;50.954;7.116;2023-05-02T07:18:21;38.13;;;23.40;;
5333;SDS011;2689;50.954;7.116;2023-05-02T07:20:48;32.63;;;22.60;;
5333;SDS011;2689;50.954;7.116;2023-05-02T07:23:15;31.53;;;22.27;;
5333;SDS011;2689;50.954;7.116;2023-05-02T07:25:43;32.40;;;21.43;;
5333;SDS011;2689;50.954;7.116;2023-05-02T07:28:10;30.40;;;20.93;;
5333;SDS011;2689;50.954;7.116;2023-05-02T07:30:37;33.60;;;24.30;;
5333;SDS011;2689;50.954;7.116;2023-05-02T07:33:04;30.53;;;21.17;;
5333;SDS011;2689;50.954;7.116;2023-05-02T07:35:31;29.30;;;21.63;;
5333;SDS011;2689;50.954;7.116;2023-05-02T07:37:58;26.20;;;19.77;;
5333;SDS011;2689;50.954;7.116;2023-05-02T07:40:24;25.10;;;20.27;;
5333;SDS011;2689;50.954;7.116;2023-05-02T07:42:53;20.40;;;17.50;;
5333;SDS011;2689;50.954;7.116;2023-05-02T07:45:20;17.30;;;13.90;;
5333;SDS011;2689;50.954;7.116;2023-05-02T07:47:47;15.20;;;10.43;;
5333;SDS011;2689;50.954;7.116;2023-05-02T07:50:14;14.73;;;10.90;;
5333;SDS011;2689;50.954;7.116;2023-05-02T07:52:41;16.23;;;11.20;;
5333;SDS011;2689;50.954;7.116;2023-05-02T07:55:08;11.90;;;9.30;;
5333;SDS011;2689;50.954;7.116;2023-05-02T07:57:35;11.77;;;9.53;;
5333;SDS011;2689;50.954;7.116;2023-05-02T08:00:03;14.00;;;8.20;;
5333;SDS011;2689;50.954;7.116;2023-05-02T08:02:34;13.43;;;9.93;;
5333;SDS011;2689;50.954;7.116;2023-05-02T08:05:01;11.47;;;8.00;;
5333;SDS011;2689;50.954;7.116;2023-05-02T08:07:28;10.83;;;7.57;;
5333;SDS011;2689;50.954;7.116;2023-05-02T08:09:55;10.67;;;6.53;;
5333;SDS011;2689;50.954;7.116;2023-05-02T08:12:21;10.17;;;7.07;;
5333;SDS011;2689;50.954;7.116;2023-05-02T08:14:48;9.53;;;6.83;;
5333;SDS011;2689;50.954;7.116;2023-05-02T08:17:16;11.50;;;7.30;;
5333;SDS011;2689;50.954;7.116;2023-05-02T08:19:43;12.20;;;6.80;;
5333;SDS011;2689;50.954;7.116;2023-05-02T08:22:10;11.13;;;6.87;;
5333;SDS011;2689;50.954;7.116;2023-05-02T08:24:36;7.13;;;5.70;;
5333;SDS011;2689;50.954;7.116;2023-05-02T08:27:03;9.30;;;6.30;;
5333;SDS011;2689;50.954;7.116;2023-05-02T08:29:30;9.60;;;6.47;;
5333;SDS011;2689;50.954;7.116;2023-05-02T08:31:57;8.50;;;5.90;;
5333;SDS011;2689;50.954;7.116;2023-05-02T08:34:25;8.10;;;5.53;;
5333;SDS011;2689;50.954;7.116;2023-05-02T08:36:52;10.13;;;7.00;;
5333;SDS011;2689;50.954;7.116;2023-05-02T08:39:19;8.37;;;5.63;;
5333;SDS011;2689;50.954;7.116;2023-05-02T08:41:45;11.20;;;6.47;;
5333;SDS011;2689;50.954;7.116;2023-05-02T08:44:12;9.93;;;5.90;;
5333;SDS011;2689;50.954;7.116;2023-05-02T08:46:39;8.73;;;6.03;;
5333;SDS011;2689;50.954;7.116;2023-05-02T08:49:07;10.93;;;6.57;;
5333;SDS011;2689;50.954;7.116;2023-05-02T08:51:37;14.40;;;6.73;;
5333;SDS011;2689;50.954;7.116;2023-05-02T08:54:05;8.93;;;6.60;;
5333;SDS011;2689;50.954;7.116;2023-05-02T08:56:34;12.57;;;7.03;;
5333;SDS011;2689;50.954;7.116;2023-05-02T08:59:04;10.43;;;8.47;;
5333;SDS011;2689;50.954;7.116;2023-05-02T09:01:33;12.30;;;8.33;;
5333;SDS011;2689;50.954;7.116;2023-05-02T09:04:02;9.87;;;8.20;;
5333;SDS011;2689;50.954;7.116;2023-05-02T09:06:29;10.90;;;8.90;;
5333;SDS011;2689;50.954;7.116;2023-05-02T09:08:58;10.70;;;8.07;;
5333;SDS011;2689;50.954;7.116;2023-05-02T09:11:25;17.23;;;8.87;;
5333;SDS011;2689;50.954;7.116;2023-05-02T09:13:52;9.50;;;7.07;;
5333;SDS011;2689;50.954;7.116;2023-05-02T09:16:20;16.63;;;9.33;;
5333;SDS011;2689;50.954;7.116;2023-05-02T09:18:48;15.10;;;9.43;;
5333;SDS011;2689;50.954;7.116;2023-05-02T09:21:17;20.93;;;12.90;;
5333;SDS011;2689;50.954;7.116;2023-05-02T09:23:45;20.53;;;15.33;;
5333;SDS011;2689;50.954;7.116;2023-05-02T09:26:15;21.73;;;16.27;;
5333;SDS011;2689;50.954;7.116;2023-05-02T09:28:43;15.40;;;12.67;;
5333;SDS011;2689;50.954;7.116;2023-05-02T09:31:12;15.73;;;8.73;;
5333;SDS011;2689;50.954;7.116;2023-05-02T09:33:40;7.17;;;5.30;;
5333;SDS011;2689;50.954;7.116;2023-05-02T09:36:07;8.97;;;5.67;;
5333;SDS011;2689;50.954;7.116;2023-05-02T09:38:36;7.40;;;4.30;;
5333;SDS011;2689;50.954;7.116;2023-05-02T09:41:03;8.63;;;3.87;;
5333;SDS011;2689;50.954;7.116;2023-05-02T09:43:31;7.80;;;4.20;;
5333;SDS011;2689;50.954;7.116;2023-05-02T09:45:59;9.73;;;3.80;;
5333;SDS011;2689;50.954;7.116;2023-05-02T09:48:28;5.90;;;3.37;;
5333;SDS011;2689;50.954;7.116;2023-05-02T09:50:56;6.70;;;3.40;;
5333;SDS011;2689;50.954;7.116;2023-05-02T09:53:23;6.70;;;3.57;;
5333;SDS011;2689;50.954;7.116;2023-05-02T09:56:01;8.60;;;2.90;;
5333;SDS011;2689;50.954;7.116;2023-05-02T09:58:29;13.73;;;3.00;;
5333;SDS011;2689;50.954;7.116;2023-05-02T10:00:57;4.47;;;2.80;;
5333;SDS011;2689;50.954;7.116;2023-05-02T10:03:25;5.33;;;3.67;;
5333;SDS011;2689;50.954;7.116;2023-05-02T10:05:53;5.57;;;4.40;;
5333;SDS011;2689;50.954;7.116;2023-05-02T10:08:23;9.77;;;5.57;;
5333;SDS011;2689;50.954;7.116;2023-05-02T10:10:51;8.40;;;4.63;;
5333;SDS011;2689;50.954;7.116;2023-05-02T10:13:20;7.90;;;4.93;;
5333;SDS011;2689;50.954;7.116;2023-05-02T10:15:49;12.33;;;6.30;;
5333;SDS011;2689;50.954;7.116;2023-05-02T10:18:26;8.43;;;5.70;;
5333;SDS011;2689;50.954;7.116;2023-05-02T10:20:55;9.43;;;5.50;;
5333;SDS011;2689;50.954;7.116;2023-05-02T10:23:26;9.00;;;5.47;;
5333;SDS011;2689;50.954;7.116;2023-05-02T10:25:54;7.40;;;6.30;;
5333;SDS011;2689;50.954;7.116;2023-05-02T10:28:22;9.30;;;6.80;;
5333;SDS011;2689;50.954;7.116;2023-05-02T10:30:49;10.13;;;7.37;;
5333;SDS011;2689;50.954;7.116;2023-05-02T10:33:18;13.13;;;9.03;;
5333;SDS011;2689;50.954;7.116;2023-05-02T10:35:47;10.27;;;7.40;;
5333;SDS011;2689;50.954;7.116;2023-05-02T10:38:15;9.10;;;7.23;;
5333;SDS011;2689;50.954;7.116;2023-05-02T10:40:47;8.60;;;7.47;;
5333;SDS011;2689;50.954;7.116;2023-05-02T10:43:20;10.30;;;7.70;;
5333;SDS011;2689;50.954;7.116;2023-05-02T10:45:51;10.63;;;7.67;;
5333;SDS011;2689;50.954;7.116;2023-05-02T10:48:20;10.17;;;7.13;;
5333;SDS011;2689;50.954;7.116;2023-05-02T10:50:50;7.30;;;6.60;;
5333;SDS011;2689;50.954;7.116;2023-05-02T10:53:28;8.50;;;6.30;;
5333;SDS011;2689;50.954;7.116;2023-05-02T10:56:12;6.73;;;4.97;;
5333;SDS011;2689;50.954;7.116;2023-05-02T10:58:45;5.93;;;4.53;;
5333;SDS011;2689;50.954;7.116;2023-05-02T11:04:02;6.40;;;5.70;;
5333;SDS011;2689;50.954;7.116;2023-05-02T11:06:31;8.80;;;5.00;;
5333;SDS011;2689;50.954;7.116;2023-05-02T11:11:58;7.93;;;5.40;;
5333;SDS011;2689;50.954;7.116;2023-05-02T11:14:45;9.67;;;4.70;;
5333;SDS011;2689;50.954;7.116;2023-05-02T11:17:12;6.30;;;5.47;;
5333;SDS011;2689;50.954;7.116;2023-05-02T11:22:50;7.90;;;4.87;;
5333;SDS011;2689;50.954;7.116;2023-05-02T11:28:05;10.77;;;6.80;;
5333;SDS011;2689;50.954;7.116;2023-05-02T11:30:40;5.77;;;4.40;;
5333;SDS011;2689;50.954;7.116;2023-05-02T11:33:15;17.13;;;10.17;;
5333;SDS011;2689;50.954;7.116;2023-05-02T11:35:44;5.93;;;5.33;;
5333;SDS011;2689;50.954;7.116;2023-05-02T11:38:15;7.73;;;4.50;;
5333;SDS011;2689;50.954;7.116;2023-05-02T11:40:51;7.67;;;4.60;;
5333;SDS011;2689;50.954;7.116;2023-05-02T11:43:20;8.07;;;5.73;;
5333;SDS011;2689;50.954;7.116;2023-05-02T11:45:49;7.70;;;4.50;;
5333;SDS011;2689;50.954;7.116;2023-05-02T11:48:16;5.87;;;4.03;;
5333;SDS011;2689;50.954;7.116;2023-05-02T11:50:46;20.70;;;17.63;;
5333;SDS011;2689;50.954;7.116;2023-05-02T11:53:16;8.53;;;6.40;;
5333;SDS011;2689;50.954;7.116;2023-05-02T11:55:46;6.93;;;5.43;;
5333;SDS011;2689;50.954;7.116;2023-05-02T11:58:16;9.70;;;7.90;;
5333;SDS011;2689;50.954;7.116;2023-05-02T12:00:44;8.97;;;5.43;;
5333;SDS011;2689;50.954;7.116;2023-05-02T12:03:18;7.70;;;4.20;;
5333;SDS011;2689;50.954;7.116;2023-05-02T12:05:49;6.73;;;3.50;;
5333;SDS011;2689;50.954;7.116;2023-05-02T12:08:18;7.37;;;4.40;;
5333;SDS011;2689;50.954;7.116;2023-05-02T12:10:46;5.60;;;3.90;;
5333;SDS011;2689;50.954;7.116;2023-05-02T12:13:15;7.77;;;4.90;;
5333;SDS011;2689;50.954;7.116;2023-05-02T12:15:42;7.63;;;4.10;;
5333;SDS011;2689;50.954;7.116;2023-05-02T12:18:11;9.70;;;4.47;;
5333;SDS011;2689;50.954;7.116;2023-05-02T12:20:38;5.87;;;4.23;;
5333;SDS011;2689;50.954;7.116;2023-05-02T12:23:05;5.50;;;4.03;;
5333;SDS011;2689;50.954;7.116;2023-05-02T12:25:37;10.57;;;7.10;;
5333;SDS011;2689;50.954;7.116;2023-05-02T12:28:05;9.90;;;4.40;;
5333;SDS011;2689;50.954;7.116;2023-05-02T12:30:32;10.10;;;6.20;;
5333;SDS011;2689;50.954;7.116;2023-05-02T12:33:00;6.53;;;4.30;;
5333;SDS011;2689;50.954;7.116;2023-05-02T12:35:27;9.90;;;6.70;;
5333;SDS011;2689;50.954;7.116;2023-05-02T12:38:06;5.40;;;4.07;;
5333;SDS011;2689;50.954;7.116;2023-05-02T12:40:34;6.37;;;4.73;;
5333;SDS011;2689;50.954;7.116;2023-05-02T12:43:03;9.93;;;4.83;;
5333;SDS011;2689;50.954;7.116;2023-05-02T12:45:32;6.63;;;4.43;;
5333;SDS011;2689;50.954;7.116;2023-05-02T12:47:59;10.30;;;5.27;;
5333;SDS011;2689;50.954;7.116;2023-05-02T12:50:36;6.20;;;4.40;;
5333;SDS011;2689;50.954;7.116;2023-05-02T12:53:03;6.13;;;3.77;;
5333;SDS011;2689;50.954;7.116;2023-05-02T12:55:31;9.27;;;3.93;;
5333;SDS011;2689;50.954;7.116;2023-05-02T12:57:58;7.93;;;4.50;;
5333;SDS011;2689;50.954;7.116;2023-05-02T13:00:27;9.23;;;4.40;;
5333;SDS011;2689;50.954;7.116;2023-05-02T13:02:54;6.37;;;4.50;;
5333;SDS011;2689;50.954;7.116;2023-05-02T13:05:21;8.50;;;4.10;;
5333;SDS011;2689;50.954;7.116;2023-05-02T13:07:48;9.27;;;4.47;;
5333;SDS011;2689;50.954;7.116;2023-05-02T13:10:15;5.63;;;4.37;;
5333;SDS011;2689;50.954;7.116;2023-05-02T13:12:43;6.87;;;4.13;;
5333;SDS011;2689;50.954;7.116;2023-05-02T13:15:10;11.27;;;4.80;;
5333;SDS011;2689;50.954;7.116;2023-05-02T13:17:39;7.80;;;4.83;;
5333;SDS011;2689;50.954;7.116;2023-05-02T13:20:07;8.37;;;5.73;;
5333;SDS011;2689;50.954;7.116;2023-05-02T13:22:34;7.23;;;4.47;;
5333;SDS011;2689;50.954;7.116;2023-05-02T13:25:01;8.90;;;4.67;;
5333;SDS011;2689;50.954;7.116;2023-05-02T13:27:28;11.37;;;6.03;;
5333;SDS011;2689;50.954;7.116;2023-05-02T13:29:55;10.90;;;5.40;;
5333;SDS011;2689;50.954;7.116;2023-05-02T13:32:22;7.10;;;4.87;;
5333;SDS011;2689;50.954;7.116;2023-05-02T13:34:50;7.77;;;4.83;;
5333;SDS011;2689;50.954;7.116;2023-05-02T13:37:17;8.70;;;5.27;;
5333;SDS011;2689;50.954;7.116;2023-05-02T13:39:43;5.90;;;4.20;;
5333;SDS011;2689;50.954;7.116;2023-05-02T13:42:10;6.43;;;4.93;;
5333;SDS011;2689;50.954;7.116;2023-05-02T13:44:37;11.07;;;6.70;;
5333;SDS011;2689;50.954;7.116;2023-05-02T13:47:03;8.97;;;5.30;;
5333;SDS011;2689;50.954;7.116;2023-05-02T13:49:30;10.03;;;5.33;;
5333;SDS011;2689;50.954;7.116;2023-05-02T13:51:58;12.60;;;5.27;;
5333;SDS011;2689;50.954;7.116;2023-05-02T13:54:25;8.70;;;5.53;;
5333;SDS011;2689;50.954;7.116;2023-05-02T13:56:52;8.33;;;5.37;;
5333;SDS011;2689;50.954;7.116;2023-05-02T13:59:19;9.07;;;6.00;;
5333;SDS011;2689;50.954;7.116;2023-05-02T14:01:46;13.00;;;6.70;;
5333;SDS011;2689;50.954;7.116;2023-05-02T14:04:13;12.50;;;6.80;;
5333;SDS011;2689;50.954;7.116;2023-05-02T14:06:39;8.17;;;5.93;;
5333;SDS011;2689;50.954;7.116;2023-05-02T14:09:07;10.00;;;5.70;;
5333;SDS011;2689;50.954;7.116;2023-05-02T14:11:34;8.50;;;6.83;;
5333;SDS011;2689;50.954;7.116;2023-05-02T14:14:01;9.30;;;6.43;;
5333;SDS011;2689;50.954;7.116;2023-05-02T14:16:28;22.10;;;16.90;;
5333;SDS011;2689;50.954;7.116;2023-05-02T14:18:55;15.50;;;6.63;;
5333;SDS011;2689;50.954;7.116;2023-05-02T14:21:21;10.47;;;6.00;;
5333;SDS011;2689;50.954;7.116;2023-05-02T14:23:48;10.17;;;7.10;;
5333;SDS011;2689;50.954;7.116;2023-05-02T14:26:16;8.50;;;5.50;;
5333;SDS011;2689;50.954;7.116;2023-05-02T14:28:44;8.63;;;6.13;;
5333;SDS011;2689;50.954;7.116;2023-05-02T14:31:11;8.80;;;5.60;;
5333;SDS011;2689;50.954;7.116;2023-05-02T14:33:38;7.30;;;5.73;;
5333;SDS011;2689;50.954;7.116;2023-05-02T14:36:05;7.73;;;5.13;;
5333;SDS011;2689;50.954;7.116;2023-05-02T14:38:32;9.30;;;5.70;;
5333;SDS011;2689;50.954;7.116;2023-05-02T14:40:59;13.97;;;5.33;;
5333;SDS011;2689;50.954;7.116;2023-05-02T14:43:28;12.40;;;5.43;;
5333;SDS011;2689;50.954;7.116;2023-05-02T14:45:55;11.03;;;5.80;;
5333;SDS011;2689;50.954;7.116;2023-05-02T14:48:22;9.00;;;5.30;;
5333;SDS011;2689;50.954;7.116;2023-05-02T14:50:49;7.87;;;5.13;;
5333;SDS011;2689;50.954;7.116;2023-05-02T14:53:17;10.03;;;5.50;;
5333;SDS011;2689;50.954;7.116;2023-05-02T14:55:45;9.10;;;6.20;;
5333;SDS011;2689;50.954;7.116;2023-05-02T14:58:12;7.10;;;4.90;;
5333;SDS011;2689;50.954;7.116;2023-05-02T15:00:45;9.43;;;5.20;;
5333;SDS011;2689;50.954;7.116;2023-05-02T15:03:12;10.40;;;5.97;;
5333;SDS011;2689;50.954;7.116;2023-05-02T15:05:39;9.83;;;5.47;;
5333;SDS011;2689;50.954;7.116;2023-05-02T15:08:05;9.37;;;5.80;;
5333;SDS011;2689;50.954;7.116;2023-05-02T15:10:35;10.40;;;6.00;;
5333;SDS011;2689;50.954;7.116;2023-05-02T15:13:02;6.93;;;5.23;;
5333;SDS011;2689;50.954;7.116;2023-05-02T15:15:29;10.63;;;5.40;;
5333;SDS011;2689;50.954;7.116;2023-05-02T15:17:58;9.40;;;6.20;;